CheckWX is a tool to help pilots better visualize weather data.  It is not intended as a substitute for an official pre-flight weather briefing.

18:21:06 UTC

KHSV TAF
Huntsville International-Carl T Jones Field Airport
Huntsville, Alabama, USA
KHSV 171720Z 1718/1818 03005KT P6SM SKC

Oct-17@
18:00 UTC

Oct-17 @ 18:00 UTC

Oct-18@
18:00 UTC

Oct-18 @ 18:00 UTC

KHSV 171720Z 1718/1818 03005KT P6SM SKC
Wind
  • 030° at 5 KTS
Cloud Levels
  • Clear skies